Time;durP1;ratioP1;P1;durP2;ratioP2;P2;SDS_P1;SDS_P2;PMS_P1;PMS_P2;Temp;Humidity;BMP_temperature;BMP_pressure;BME280_temperature;BME280_humidity;BME280_pressure;Samples;Min_cycle;Max_cycle;Signal;HPM_P1;HPM_P2
2024/02/22 00:02:21;;;;;;;81.43;55.30;;;;;;;;;;5007573;28;20029;-59
2024/02/22 00:04:47;;;;;;;82.95;58.35;;;;;;;;;;5011712;28;20392;-59
2024/02/22 00:07:16;;;;;;;77.97;54.25;;;;;;;;;;5021631;28;20029;-59
2024/02/22 00:09:42;;;;;;;80.70;54.50;;;;;;;;;;5010183;28;20014;-59
2024/02/22 00:12:08;;;;;;;83.00;55.28;;;;;;;;;;5008894;28;20112;-60
2024/02/22 00:14:34;;;;;;;76.45;53.58;;;;;;;;;;5022760;28;20109;-59
2024/02/22 00:17:01;;;;;;;78.60;55.25;;;;;;;;;;5011805;28;20045;-59
2024/02/22 00:19:27;;;;;;;77.65;53.67;;;;;;;;;;5001602;28;20129;-60
2024/02/22 00:21:53;;;;;;;80.95;54.72;;;;;;;;;;4997754;28;20030;-60
2024/02/22 00:24:19;;;;;;;76.28;53.53;;;;;;;;;;5009832;28;20440;-60
2024/02/22 00:26:45;;;;;;;75.88;52.78;;;;;;;;;;5009277;28;20484;-60
2024/02/22 00:29:12;;;;;;;76.47;53.25;;;;;;;;;;5009945;28;20033;-61
2024/02/22 00:31:38;;;;;;;81.03;53.22;;;;;;;;;;5007080;28;20062;-60
2024/02/22 00:34:04;;;;;;;79.45;55.33;;;;;;;;;;5009838;28;20128;-60
2024/02/22 00:36:30;;;;;;;76.38;52.90;;;;;;;;;;5011394;28;20079;-60
2024/02/22 00:38:56;;;;;;;75.95;54.72;;;;;;;;;;5005960;28;20026;-60
2024/02/22 00:41:22;;;;;;;77.43;55.45;;;;;;;;;;5009346;28;20033;-60
2024/02/22 00:43:53;;;;;;;80.55;54.85;;;;;;;;;;5001296;28;20108;-60
2024/02/22 00:46:19;;;;;;;78.97;54.40;;;;;;;;;;5005424;28;20034;-60
2024/02/22 00:48:45;;;;;;;75.28;51.90;;;;;;;;;;5010282;28;20485;-60
2024/02/22 00:51:11;;;;;;;79.20;54.55;;;;;;;;;;5008110;28;20115;-61
2024/02/22 00:53:37;;;;;;;80.78;55.33;;;;;;;;;;5022286;28;20073;-61
2024/02/22 00:56:03;;;;;;;77.57;55.58;;;;;;;;;;5026216;28;20018;-60
2024/02/22 00:58:29;;;;;;;78.72;54.42;;;;;;;;;;5012139;28;20088;-60
2024/02/22 01:00:55;;;;;;;81.50;54.20;;;;;;;;;;5022465;28;20450;-60
2024/02/22 01:03:21;;;;;;;78.97;53.33;;;;;;;;;;5004567;28;20026;-61
2024/02/22 01:05:47;;;;;;;81.05;55.00;;;;;;;;;;5010183;28;20026;-61
2024/02/22 01:08:13;;;;;;;79.35;55.67;;;;;;;;;;5019292;28;20109;-61
2024/02/22 01:10:39;;;;;;;74.53;52.95;;;;;;;;;;5016061;28;20044;-60
2024/02/22 01:13:05;;;;;;;74.35;54.05;;;;;;;;;;5026014;28;20022;-60
2024/02/22 01:15:31;;;;;;;77.70;52.72;;;;;;;;;;5010104;28;20029;-61
2024/02/22 01:17:57;;;;;;;78.10;54.78;;;;;;;;;;5021651;28;20392;-60
2024/02/22 01:20:23;;;;;;;77.25;54.05;;;;;;;;;;5007870;28;20025;-60
2024/02/22 01:22:49;;;;;;;80.32;53.67;;;;;;;;;;5010107;28;20444;-60
2024/02/22 01:25:15;;;;;;;74.65;53.10;;;;;;;;;;5010237;28;20087;-60
2024/02/22 01:27:42;;;;;;;77.35;52.42;;;;;;;;;;5008631;28;20113;-60
2024/02/22 01:30:09;;;;;;;84.82;55.13;;;;;;;;;;5008824;28;20026;-61
2024/02/22 01:32:35;;;;;;;85.00;57.40;;;;;;;;;;5009656;28;20033;-60
2024/02/22 01:35:02;;;;;;;76.18;51.97;;;;;;;;;;5018520;28;20033;-60
2024/02/22 01:37:28;;;;;;;73.53;52.00;;;;;;;;;;5015497;28;20022;-60
2024/02/22 01:39:54;;;;;;;77.00;52.67;;;;;;;;;;5012567;28;20383;-60
2024/02/22 01:42:20;;;;;;;72.63;49.50;;;;;;;;;;5004217;28;20110;-61
2024/02/22 01:44:46;;;;;;;71.95;50.75;;;;;;;;;;5014212;28;20053;-61
2024/02/22 01:47:13;;;;;;;80.25;49.95;;;;;;;;;;5014760;28;20061;-60
2024/02/22 01:49:39;;;;;;;71.82;49.78;;;;;;;;;;5007509;28;20502;-60
2024/02/22 01:52:07;;;;;;;75.32;51.78;;;;;;;;;;5002575;28;20034;-60
2024/02/22 01:54:33;;;;;;;77.15;52.10;;;;;;;;;;5024415;28;20552;-61
2024/02/22 01:57:00;;;;;;;75.57;50.63;;;;;;;;;;5033965;28;20091;-61
2024/02/22 01:59:26;;;;;;;67.70;48.47;;;;;;;;;;5009850;28;20032;-60
2024/02/22 02:01:52;;;;;;;75.32;50.70;;;;;;;;;;5014334;28;20519;-60
2024/02/22 02:04:18;;;;;;;74.28;49.55;;;;;;;;;;5012510;28;20056;-61
2024/02/22 02:06:45;;;;;;;70.55;49.30;;;;;;;;;;5015823;28;20029;-60
2024/02/22 02:09:13;;;;;;;75.97;50.05;;;;;;;;;;5011119;28;20113;-60
2024/02/22 02:11:41;;;;;;;74.07;50.55;;;;;;;;;;5001264;28;20037;-61
2024/02/22 02:14:07;;;;;;;74.22;50.10;;;;;;;;;;5010678;28;20036;-60
2024/02/22 02:16:33;;;;;;;72.90;49.97;;;;;;;;;;5012953;28;20045;-60
2024/02/22 02:18:59;;;;;;;75.13;52.17;;;;;;;;;;5012841;28;20034;-60
2024/02/22 02:21:34;;;;;;;73.95;52.13;;;;;;;;;;5013088;28;20037;-61
2024/02/22 02:24:00;;;;;;;79.47;54.53;;;;;;;;;;5007172;28;20041;-60
2024/02/22 02:26:26;;;;;;;78.55;54.92;;;;;;;;;;5016694;28;20160;-60
2024/02/22 02:28:52;;;;;;;75.50;52.67;;;;;;;;;;5012855;28;20092;-60
2024/02/22 02:31:18;;;;;;;78.65;53.28;;;;;;;;;;5012900;28;20381;-60
2024/02/22 02:33:44;;;;;;;78.75;53.17;;;;;;;;;;5005555;28;20026;-60
2024/02/22 02:36:10;;;;;;;77.07;53.85;;;;;;;;;;5012561;28;20442;-60
2024/02/22 02:38:36;;;;;;;80.35;55.20;;;;;;;;;;5012756;28;20048;-60
2024/02/22 02:41:02;;;;;;;81.97;55.80;;;;;;;;;;5009355;28;20029;-60
2024/02/22 02:43:28;;;;;;;79.05;53.80;;;;;;;;;;5008386;28;20038;-60
2024/02/22 02:46:00;;;;;;;81.32;55.95;;;;;;;;;;5005582;28;20527;-61
2024/02/22 02:48:26;;;;;;;79.32;54.88;;;;;;;;;;5017415;28;20022;-60
2024/02/22 02:50:52;;;;;;;79.65;53.72;;;;;;;;;;5012175;28;20045;-60
2024/02/22 02:53:18;;;;;;;81.85;55.10;;;;;;;;;;5007210;28;20097;-61
2024/02/22 02:55:44;;;;;;;77.93;54.00;;;;;;;;;;5011599;28;20025;-60
2024/02/22 02:58:10;;;;;;;78.82;53.72;;;;;;;;;;5010556;28;20037;-60
2024/02/22 03:00:36;;;;;;;79.55;53.90;;;;;;;;;;5012179;28;20058;-60
2024/02/22 03:03:05;;;;;;;76.38;53.20;;;;;;;;;;5007053;28;20089;-60
2024/02/22 03:05:30;;;;;;;82.20;54.90;;;;;;;;;;5008090;28;20045;-60
2024/02/22 03:07:57;;;;;;;83.65;56.85;;;;;;;;;;5009405;28;20125;-60
2024/02/22 03:10:23;;;;;;;81.60;56.47;;;;;;;;;;5008026;28;20029;-60
2024/02/22 03:12:49;;;;;;;81.35;55.28;;;;;;;;;;5011855;28;20136;-60
2024/02/22 03:15:15;;;;;;;81.35;55.08;;;;;;;;;;5012182;28;20026;-60
2024/02/22 03:17:41;;;;;;;80.70;55.00;;;;;;;;;;5006083;28;20044;-60
2024/02/22 03:20:11;;;;;;;80.10;54.47;;;;;;;;;;4997588;28;20022;-60
2024/02/22 03:22:37;;;;;;;85.80;55.67;;;;;;;;;;5010956;28;20549;-60
2024/02/22 03:25:05;;;;;;;83.53;55.63;;;;;;;;;;5008772;28;20026;-60
2024/02/22 03:27:32;;;;;;;84.47;57.30;;;;;;;;;;5023864;28;20437;-60
2024/02/22 03:29:58;;;;;;;83.30;57.00;;;;;;;;;;5025689;28;20128;-60
2024/02/22 03:32:24;;;;;;;81.35;55.58;;;;;;;;;;5016717;28;20099;-60
2024/02/22 03:34:50;;;;;;;81.35;55.00;;;;;;;;;;5009415;28;20050;-60
2024/02/22 03:37:17;;;;;;;84.95;56.70;;;;;;;;;;5024805;28;20546;-60
2024/02/22 03:39:49;;;;;;;78.55;54.22;;;;;;;;;;5003474;28;20484;-60
2024/02/22 03:42:18;;;;;;;84.57;57.00;;;;;;;;;;5010586;28;20037;-60
2024/02/22 03:47:47;;;;;;;80.07;53.80;;;;;;;;;;5004943;28;20092;-60
2024/02/22 03:50:13;;;;;;;76.03;52.58;;;;;;;;;;5006196;28;20033;-60
2024/02/22 03:52:39;;;;;;;82.05;56.85;;;;;;;;;;5008546;28;20497;-61
2024/02/22 03:55:05;;;;;;;79.43;55.60;;;;;;;;;;5013414;28;20095;-61
2024/02/22 03:57:31;;;;;;;82.25;56.75;;;;;;;;;;5011837;28;20044;-61
2024/02/22 03:59:58;;;;;;;83.05;55.63;;;;;;;;;;5009279;28;20061;-61
2024/02/22 04:02:24;;;;;;;84.55;57.70;;;;;;;;;;5009429;28;20026;-60
2024/02/22 04:04:51;;;;;;;80.85;55.72;;;;;;;;;;5012312;28;20032;-61
2024/02/22 04:07:17;;;;;;;82.80;58.08;;;;;;;;;;5012103;28;20144;-61
2024/02/22 04:09:43;;;;;;;85.63;56.05;;;;;;;;;;5005088;28;20042;-61
2024/02/22 04:12:09;;;;;;;82.47;55.92;;;;;;;;;;5003760;28;20041;-60
2024/02/22 04:14:35;;;;;;;78.80;55.78;;;;;;;;;;5016445;28;20508;-60
2024/02/22 04:17:01;;;;;;;81.63;54.75;;;;;;;;;;5021999;28;20135;-60
2024/02/22 04:19:27;;;;;;;80.47;57.30;;;;;;;;;;5024369;28;20026;-65
2024/02/22 04:21:53;;;;;;;86.32;56.67;;;;;;;;;;5013952;28;20053;-61
2024/02/22 04:24:19;;;;;;;81.68;56.60;;;;;;;;;;5010023;28;20345;-60
2024/02/22 04:26:50;;;;;;;80.50;55.97;;;;;;;;;;5010453;28;20041;-60
2024/02/22 04:29:16;;;;;;;87.25;56.05;;;;;;;;;;5007971;28;20076;-60
2024/02/22 04:31:43;;;;;;;83.70;55.88;;;;;;;;;;5003459;28;20392;-60
2024/02/22 04:34:09;;;;;;;87.95;56.40;;;;;;;;;;5005647;28;20387;-60
2024/02/22 04:36:41;;;;;;;83.95;56.13;;;;;;;;;;5009624;28;20022;-60
2024/02/22 04:39:09;;;;;;;83.32;55.83;;;;;;;;;;5010040;28;20021;-60
2024/02/22 04:41:35;;;;;;;77.18;54.53;;;;;;;;;;5010517;28;20029;-60
2024/02/22 04:44:02;;;;;;;81.72;54.38;;;;;;;;;;5006390;28;21862;-60
2024/02/22 04:46:28;;;;;;;76.55;52.83;;;;;;;;;;5003686;28;20030;-60
2024/02/22 04:48:54;;;;;;;81.45;55.78;;;;;;;;;;5007528;28;20029;-60
2024/02/22 04:51:20;;;;;;;82.18;53.45;;;;;;;;;;5001883;28;20125;-60
2024/02/22 04:53:46;;;;;;;80.90;54.90;;;;;;;;;;5019365;28;20022;-60
2024/02/22 04:56:13;;;;;;;80.35;53.80;;;;;;;;;;5026247;28;20029;-60
2024/02/22 04:58:39;;;;;;;79.30;53.30;;;;;;;;;;5011358;28;20022;-60
2024/02/22 05:01:05;;;;;;;82.35;54.28;;;;;;;;;;5009602;28;20141;-60
2024/02/22 05:03:31;;;;;;;79.32;52.72;;;;;;;;;;5008570;28;20109;-60
2024/02/22 05:05:57;;;;;;;78.70;52.83;;;;;;;;;;4998165;28;20033;-60
2024/02/22 05:08:23;;;;;;;75.88;52.50;;;;;;;;;;5010730;28;20488;-60
2024/02/22 05:10:52;;;;;;;82.32;55.20;;;;;;;;;;5009981;28;20030;-60
2024/02/22 05:13:19;;;;;;;84.55;54.97;;;;;;;;;;5007947;28;20805;-60
2024/02/22 05:15:45;;;;;;;79.00;54.38;;;;;;;;;;5007679;28;20471;-60
2024/02/22 05:18:11;;;;;;;79.43;53.95;;;;;;;;;;5001470;28;20064;-60
2024/02/22 05:20:38;;;;;;;80.78;51.30;;;;;;;;;;5011940;28;20392;-60
2024/02/22 05:23:06;;;;;;;81.53;54.67;;;;;;;;;;5005708;28;20057;-60
2024/02/22 05:25:33;;;;;;;78.28;53.10;;;;;;;;;;5000991;28;20120;-60
2024/02/22 05:27:59;;;;;;;73.93;51.38;;;;;;;;;;5010855;28;20026;-60
2024/02/22 05:30:25;;;;;;;75.15;52.15;;;;;;;;;;5025564;28;20030;-60
2024/02/22 05:32:51;;;;;;;81.45;52.97;;;;;;;;;;5002918;28;20429;-60
2024/02/22 05:35:17;;;;;;;83.70;52.88;;;;;;;;;;5007564;28;20033;-59
2024/02/22 05:37:43;;;;;;;78.15;52.10;;;;;;;;;;5010864;28;20032;-60
2024/02/22 05:40:09;;;;;;;79.68;54.20;;;;;;;;;;5010495;28;20133;-59
2024/02/22 05:42:35;;;;;;;80.50;53.40;;;;;;;;;;5003344;28;20054;-59
2024/02/22 05:45:01;;;;;;;78.95;53.28;;;;;;;;;;5004681;28;20041;-60
2024/02/22 05:47:27;;;;;;;80.45;54.22;;;;;;;;;;5006086;28;20042;-60
2024/02/22 05:49:53;;;;;;;81.10;54.05;;;;;;;;;;5003501;28;20077;-60
2024/02/22 05:52:19;;;;;;;80.05;54.03;;;;;;;;;;5015723;28;20038;-60
2024/02/22 05:54:45;;;;;;;78.25;53.55;;;;;;;;;;5014977;28;20030;-60
2024/02/22 05:57:12;;;;;;;75.60;52.00;;;;;;;;;;5029562;28;20040;-60
2024/02/22 05:59:38;;;;;;;75.70;52.45;;;;;;;;;;5015202;28;20124;-60
2024/02/22 06:02:04;;;;;;;77.75;51.83;;;;;;;;;;5008539;28;20058;-60
2024/02/22 06:04:30;;;;;;;78.72;53.13;;;;;;;;;;4998168;28;20030;-60
2024/02/22 06:06:56;;;;;;;75.53;53.40;;;;;;;;;;5008221;28;20056;-60
2024/02/22 06:09:22;;;;;;;81.22;53.78;;;;;;;;;;4998141;28;20022;-60
2024/02/22 06:11:48;;;;;;;78.93;53.33;;;;;;;;;;5016118;28;20495;-60
2024/02/22 06:14:14;;;;;;;82.68;52.85;;;;;;;;;;5011184;28;20037;-60
2024/02/22 06:16:40;;;;;;;81.00;53.67;;;;;;;;;;5007928;28;20116;-60
2024/02/22 06:19:06;;;;;;;85.68;57.55;;;;;;;;;;5013749;28;20471;-60
2024/02/22 06:21:32;;;;;;;78.65;54.80;;;;;;;;;;4998162;28;20089;-61
2024/02/22 06:23:58;;;;;;;80.45;52.22;;;;;;;;;;5013956;28;20036;-60
2024/02/22 06:26:24;;;;;;;80.35;55.20;;;;;;;;;;5012785;28;20040;-60
2024/02/22 06:28:50;;;;;;;77.05;51.47;;;;;;;;;;5001515;28;20369;-61
2024/02/22 06:31:16;;;;;;;82.68;53.67;;;;;;;;;;5035576;28;20038;-61
2024/02/22 06:33:42;;;;;;;80.40;52.90;;;;;;;;;;5008832;28;20023;-60
2024/02/22 06:36:09;;;;;;;75.18;51.95;;;;;;;;;;5009441;28;20022;-60
2024/02/22 06:38:38;;;;;;;76.57;53.25;;;;;;;;;;5009909;28;20034;-60
2024/02/22 06:44:07;;;;;;;76.28;53.50;;;;;;;;;;5009488;28;20121;-60
2024/02/22 06:46:33;;;;;;;78.57;53.42;;;;;;;;;;5005360;28;20437;-60
2024/02/22 06:48:59;;;;;;;82.35;53.80;;;;;;;;;;5005855;28;20022;-60
2024/02/22 06:51:25;;;;;;;80.10;52.83;;;;;;;;;;5009731;28;20038;-61
2024/02/22 06:53:51;;;;;;;80.45;53.15;;;;;;;;;;5018814;28;20037;-60
2024/02/22 06:56:17;;;;;;;77.28;51.80;;;;;;;;;;5003050;28;20038;-50
2024/02/22 06:58:43;;;;;;;79.22;53.42;;;;;;;;;;5012376;28;20036;-50
2024/02/22 07:01:09;;;;;;;80.18;54.03;;;;;;;;;;5002371;28;20443;-53
2024/02/22 07:03:35;;;;;;;79.45;53.70;;;;;;;;;;5008747;28;20033;-50
2024/02/22 07:06:01;;;;;;;77.88;52.42;;;;;;;;;;5013897;28;20117;-53
2024/02/22 07:08:28;;;;;;;78.97;53.30;;;;;;;;;;5004984;28;20060;-54
2024/02/22 07:10:54;;;;;;;85.55;54.38;;;;;;;;;;5006190;28;20091;-52
2024/02/22 07:13:20;;;;;;;78.93;53.35;;;;;;;;;;5005409;28;20036;-49
2024/02/22 07:15:46;;;;;;;87.03;57.05;;;;;;;;;;5022898;28;20030;-54
2024/02/22 07:18:12;;;;;;;78.50;53.58;;;;;;;;;;5011314;28;20119;-52
2024/02/22 07:20:38;;;;;;;84.40;55.40;;;;;;;;;;5007293;28;20395;-53
2024/02/22 07:23:05;;;;;;;80.90;54.67;;;;;;;;;;5009168;28;20025;-51
2024/02/22 07:25:31;;;;;;;81.55;54.10;;;;;;;;;;5006552;28;20034;-50
2024/02/22 07:27:57;;;;;;;79.15;53.40;;;;;;;;;;5007948;28;20034;-50
2024/02/22 07:30:26;;;;;;;81.05;55.95;;;;;;;;;;5001107;28;20026;-54
2024/02/22 07:32:52;;;;;;;82.10;54.75;;;;;;;;;;5012136;28;20029;-52
2024/02/22 07:35:18;;;;;;;85.53;55.03;;;;;;;;;;5004420;28;20072;-52
2024/02/22 07:37:44;;;;;;;81.43;54.53;;;;;;;;;;5011676;28;20090;-53
2024/02/22 07:40:10;;;;;;;76.95;54.70;;;;;;;;;;5008423;28;20036;-51
2024/02/22 07:42:36;;;;;;;84.80;55.78;;;;;;;;;;5003703;28;20068;-55
2024/02/22 07:45:04;;;;;;;81.60;55.35;;;;;;;;;;5004786;28;20041;-51
2024/02/22 07:47:30;;;;;;;83.70;56.03;;;;;;;;;;5007489;28;20137;-53
2024/02/22 07:49:56;;;;;;;78.32;54.63;;;;;;;;;;5002151;28;20031;-55
2024/02/22 07:52:22;;;;;;;84.85;55.78;;;;;;;;;;5002657;28;20038;-55
2024/02/22 07:54:48;;;;;;;79.03;54.40;;;;;;;;;;5006181;28;20030;-54
2024/02/22 07:57:14;;;;;;;78.60;55.72;;;;;;;;;;5019237;28;20496;-55
2024/02/22 07:59:40;;;;;;;82.78;57.00;;;;;;;;;;5011362;28;20050;-55
2024/02/22 08:02:06;;;;;;;84.05;55.15;;;;;;;;;;5010878;28;20494;-53
2024/02/22 08:04:32;;;;;;;80.32;55.05;;;;;;;;;;5004929;28;20042;-51
2024/02/22 08:06:58;;;;;;;86.93;56.42;;;;;;;;;;5004758;28;20120;-66
2024/02/22 08:09:24;;;;;;;81.57;56.03;;;;;;;;;;5000927;28;20022;-76
2024/02/22 08:11:50;;;;;;;78.90;53.15;;;;;;;;;;4994519;28;20043;-66
2024/02/22 08:14:16;;;;;;;82.68;54.65;;;;;;;;;;4995387;28;20060;-66
2024/02/22 08:16:42;;;;;;;83.35;54.08;;;;;;;;;;5006044;28;20030;-67
2024/02/22 08:19:08;;;;;;;79.22;54.30;;;;;;;;;;4998637;28;20023;-61
2024/02/22 08:21:35;;;;;;;78.65;53.72;;;;;;;;;;5008534;28;20026;-62
2024/02/22 08:24:01;;;;;;;81.13;53.03;;;;;;;;;;5002818;28;20022;-60
2024/02/22 08:26:27;;;;;;;81.38;52.80;;;;;;;;;;5007326;28;20040;-62
2024/02/22 08:28:53;;;;;;;80.65;55.13;;;;;;;;;;4997680;28;20036;-57
2024/02/22 08:31:19;;;;;;;80.32;55.83;;;;;;;;;;5004564;28;20089;-60
2024/02/22 08:33:47;;;;;;;84.00;55.72;;;;;;;;;;5006100;28;20030;-72
2024/02/22 08:36:13;;;;;;;85.85;56.88;;;;;;;;;;5001466;28;20026;-50
2024/02/22 08:38:39;;;;;;;80.88;53.50;;;;;;;;;;5010010;28;20030;-53
2024/02/22 08:41:06;;;;;;;79.60;52.55;;;;;;;;;;5017569;28;20095;-50
2024/02/22 08:43:31;;;;;;;84.47;54.47;;;;;;;;;;5022984;28;20402;-70
2024/02/22 08:45:58;;;;;;;80.78;53.60;;;;;;;;;;5005543;28;20100;-67
2024/02/22 08:48:25;;;;;;;79.88;53.55;;;;;;;;;;5005731;28;20018;-68
2024/02/22 08:50:53;;;;;;;80.13;56.08;;;;;;;;;;5010203;28;20079;-67
2024/02/22 08:53:19;;;;;;;81.93;54.97;;;;;;;;;;5003903;28;20034;-71
2024/02/22 08:55:45;;;;;;;81.57;53.83;;;;;;;;;;5005521;28;20026;-66
2024/02/22 08:58:11;;;;;;;79.30;54.08;;;;;;;;;;5027724;28;20033;-66
2024/02/22 09:00:37;;;;;;;79.38;54.25;;;;;;;;;;5010688;28;20046;-66
2024/02/22 09:03:04;;;;;;;77.60;54.13;;;;;;;;;;4998980;28;20120;-62
2024/02/22 09:05:30;;;;;;;83.88;55.30;;;;;;;;;;5012840;28;20096;-73
2024/02/22 09:07:56;;;;;;;80.53;54.55;;;;;;;;;;5005732;28;20042;-70
2024/02/22 09:10:22;;;;;;;82.38;56.13;;;;;;;;;;5004135;28;20050;-61
2024/02/22 09:12:48;;;;;;;74.85;51.10;;;;;;;;;;4997197;28;20436;-58
2024/02/22 09:15:14;;;;;;;83.20;55.30;;;;;;;;;;5001836;28;20050;-54
2024/02/22 09:17:40;;;;;;;82.10;53.75;;;;;;;;;;5002185;28;20031;-58
2024/02/22 09:20:06;;;;;;;83.47;53.80;;;;;;;;;;5002478;28;20022;-59
2024/02/22 09:22:33;;;;;;;77.45;55.38;;;;;;;;;;5014708;28;20026;-54
2024/02/22 09:24:59;;;;;;;81.30;54.60;;;;;;;;;;5005779;28;20392;-54
2024/02/22 09:27:25;;;;;;;81.97;53.90;;;;;;;;;;4998120;28;20026;-55
2024/02/22 09:29:50;;;;;;;78.80;54.38;;;;;;;;;;5003627;28;20034;-57
2024/02/22 09:32:16;;;;;;;81.65;54.92;;;;;;;;;;5004140;28;20045;-59
2024/02/22 09:34:42;;;;;;;83.53;56.92;;;;;;;;;;5010535;28;20018;-60
2024/02/22 09:37:09;;;;;;;85.63;55.97;;;;;;;;;;4999119;28;20026;-60
2024/02/22 09:39:38;;;;;;;84.72;55.13;;;;;;;;;;5002513;28;20089;-60
2024/02/22 09:42:04;;;;;;;85.68;56.28;;;;;;;;;;5006331;28;20110;-60
2024/02/22 09:44:32;;;;;;;82.63;54.53;;;;;;;;;;5001342;28;20239;-50
2024/02/22 09:46:58;;;;;;;84.03;55.92;;;;;;;;;;5005687;28;20022;-53
2024/02/22 09:49:24;;;;;;;82.95;54.80;;;;;;;;;;5003760;28;20026;-51
2024/02/22 09:51:51;;;;;;;88.53;58.17;;;;;;;;;;5005122;28;20052;-52
2024/02/22 09:54:46;;;;;;;80.28;54.92;;;;;;;;;;5002771;28;20048;-55
2024/02/22 09:57:12;;;;;;;87.35;58.10;;;;;;;;;;5005275;28;20029;-53
2024/02/22 09:59:44;;;;;;;85.05;57.88;;;;;;;;;;5035482;28;20488;-53
2024/02/22 10:02:11;;;;;;;85.70;57.33;;;;;;;;;;5003853;28;20023;-50
2024/02/22 10:04:37;;;;;;;81.78;56.08;;;;;;;;;;5003141;28;20113;-54
2024/02/22 10:07:03;;;;;;;82.50;55.67;;;;;;;;;;5002116;28;20262;-54
2024/02/22 10:09:29;;;;;;;81.55;54.75;;;;;;;;;;5019897;28;20037;-51
2024/02/22 10:11:55;;;;;;;77.63;53.90;;;;;;;;;;5008131;28;20045;-52
2024/02/22 10:14:21;;;;;;;79.70;54.95;;;;;;;;;;5002279;28;20483;-54
2024/02/22 10:16:48;;;;;;;78.60;53.67;;;;;;;;;;5007729;28;20081;-53
2024/02/22 10:19:17;;;;;;;72.65;48.15;;;;;;;;;;5021344;28;20057;-54
2024/02/22 10:21:45;;;;;;;74.80;49.20;;;;;;;;;;5004946;28;20034;-52
2024/02/22 10:24:12;;;;;;;70.25;47.13;;;;;;;;;;5002450;28;20125;-54
2024/02/22 10:26:38;;;;;;;68.32;46.50;;;;;;;;;;5001241;28;20049;-54
2024/02/22 10:29:08;;;;;;;75.60;47.50;;;;;;;;;;4999473;28;20129;-55
2024/02/22 10:31:46;;;;;;;72.57;45.78;;;;;;;;;;5007009;28;20037;-54
2024/02/22 10:34:32;;;;;;;73.43;46.17;;;;;;;;;;5001327;28;20429;-54
2024/02/22 10:36:59;;;;;;;65.90;44.42;;;;;;;;;;5020216;28;20386;-54
2024/02/22 10:39:25;;;;;;;68.45;45.92;;;;;;;;;;4998197;28;20026;-54
2024/02/22 10:44:55;;;;;;;61.10;41.83;;;;;;;;;;4995099;28;20053;-52
2024/02/22 10:47:21;;;;;;;66.50;41.60;;;;;;;;;;5013024;28;20053;-54
2024/02/22 10:49:48;;;;;;;65.78;42.35;;;;;;;;;;5012433;28;20468;-53
2024/02/22 10:52:19;;;;;;;59.47;40.72;;;;;;;;;;4996366;28;20088;-55
2024/02/22 10:54:52;;;;;;;65.60;43.67;;;;;;;;;;5003742;28;20029;-53
2024/02/22 10:57:19;;;;;;;62.22;41.17;;;;;;;;;;5013291;28;20045;-55
2024/02/22 10:59:46;;;;;;;62.00;41.22;;;;;;;;;;5013472;28;20091;-54
2024/02/22 11:02:12;;;;;;;62.03;43.00;;;;;;;;;;5013526;28;20018;-50
2024/02/22 11:04:38;;;;;;;64.75;42.00;;;;;;;;;;5013676;28;20125;-53
2024/02/22 11:07:08;;;;;;;62.30;42.05;;;;;;;;;;5013628;28;20063;-54
2024/02/22 11:09:40;;;;;;;63.58;42.88;;;;;;;;;;4999845;28;20026;-55
2024/02/22 11:12:10;;;;;;;66.20;44.55;;;;;;;;;;5009601;28;20041;-54
2024/02/22 11:14:43;;;;;;;59.45;38.92;;;;;;;;;;5006192;28;20377;-55
2024/02/22 11:17:19;;;;;;;61.88;41.55;;;;;;;;;;5008596;28;20029;-53
2024/02/22 11:19:48;;;;;;;60.83;41.05;;;;;;;;;;5008040;28;20816;-55
2024/02/22 11:22:15;;;;;;;55.60;39.63;;;;;;;;;;5010481;28;20022;-54
2024/02/22 11:24:41;;;;;;;55.53;39.17;;;;;;;;;;5004643;28;20430;-55
2024/02/22 11:27:08;;;;;;;48.40;34.72;;;;;;;;;;5008361;28;20058;-55
2024/02/22 11:29:34;;;;;;;49.33;33.95;;;;;;;;;;5013348;28;20034;-53
2024/02/22 11:32:00;;;;;;;50.30;32.53;;;;;;;;;;5013248;28;20104;-52
2024/02/22 11:34:27;;;;;;;45.95;32.08;;;;;;;;;;5011585;28;20454;-55
2024/02/22 11:37:16;;;;;;;47.78;31.63;;;;;;;;;;5012937;28;20034;-54
2024/02/22 11:39:42;;;;;;;48.58;31.65;;;;;;;;;;5028046;28;20032;-53
2024/02/22 11:42:14;;;;;;;47.28;31.40;;;;;;;;;;5002383;28;20435;-54
2024/02/22 11:50:47;;;;;;;41.90;29.58;;;;;;;;;;5003478;28;20080;-50
2024/02/22 11:53:13;;;;;;;45.92;27.67;;;;;;;;;;5013014;28;20041;-53
2024/02/22 11:55:39;;;;;;;43.10;27.33;;;;;;;;;;5012769;28;20108;-51
2024/02/22 11:58:05;;;;;;;38.95;28.30;;;;;;;;;;5012900;28;20139;-50
2024/02/22 12:00:31;;;;;;;41.67;28.77;;;;;;;;;;5012467;28;20049;-53
2024/02/22 12:02:57;;;;;;;37.05;27.85;;;;;;;;;;5011514;28;20105;-51
2024/02/22 12:05:24;;;;;;;36.30;25.85;;;;;;;;;;5012896;28;20022;-55
2024/02/22 12:07:50;;;;;;;41.13;26.45;;;;;;;;;;5011420;28;20057;-54
2024/02/22 12:10:17;;;;;;;36.28;26.05;;;;;;;;;;5009019;28;20020;-53
2024/02/22 12:12:43;;;;;;;38.97;26.27;;;;;;;;;;5003221;28;20030;-52
2024/02/22 12:15:09;;;;;;;37.33;25.77;;;;;;;;;;5011016;28;20022;-55
2024/02/22 12:17:36;;;;;;;36.75;25.20;;;;;;;;;;5012510;28;20132;-55
2024/02/22 12:20:05;;;;;;;38.53;25.55;;;;;;;;;;5012226;28;20076;-54
2024/02/22 12:22:33;;;;;;;36.92;25.35;;;;;;;;;;4998682;28;20039;-49
2024/02/22 12:25:00;;;;;;;39.45;25.75;;;;;;;;;;5001110;28;20014;-54
2024/02/22 12:27:29;;;;;;;40.75;26.48;;;;;;;;;;5009131;28;20022;-55
2024/02/22 12:29:57;;;;;;;34.63;24.67;;;;;;;;;;5003744;28;20029;-53
2024/02/22 12:32:23;;;;;;;37.28;24.80;;;;;;;;;;5007351;28;20080;-52
2024/02/22 12:34:52;;;;;;;36.65;27.00;;;;;;;;;;5002884;28;20033;-49
2024/02/22 12:37:19;;;;;;;35.05;26.90;;;;;;;;;;5011811;28;20032;-49
2024/02/22 12:39:44;;;;;;;45.13;31.05;;;;;;;;;;5010038;28;20220;-49
2024/02/22 12:42:10;;;;;;;48.40;30.77;;;;;;;;;;5009456;28;20080;-49
2024/02/22 12:44:36;;;;;;;48.92;31.40;;;;;;;;;;5011955;28;20030;-51
2024/02/22 12:47:05;;;;;;;46.00;31.88;;;;;;;;;;5011993;28;20091;-49
2024/02/22 12:49:32;;;;;;;51.00;35.72;;;;;;;;;;5011790;28;20026;-50
2024/02/22 12:51:59;;;;;;;51.00;35.08;;;;;;;;;;5011787;28;20034;-52
2024/02/22 12:54:25;;;;;;;50.65;34.70;;;;;;;;;;5010270;28;20384;-49
2024/02/22 12:56:51;;;;;;;48.63;31.55;;;;;;;;;;5011768;28;20037;-50
2024/02/22 12:59:17;;;;;;;45.75;32.10;;;;;;;;;;5008571;28;20444;-52
2024/02/22 13:01:46;;;;;;;45.15;32.05;;;;;;;;;;5010400;28;20076;-50
2024/02/22 13:04:12;;;;;;;41.42;29.75;;;;;;;;;;5011625;28;20526;-50
2024/02/22 13:06:38;;;;;;;39.00;28.95;;;;;;;;;;5008155;28;20031;-50
2024/02/22 13:09:05;;;;;;;41.08;29.20;;;;;;;;;;5002515;28;20026;-54
2024/02/22 13:11:31;;;;;;;38.72;26.48;;;;;;;;;;5003068;28;20042;-49
2024/02/22 13:13:58;;;;;;;45.95;30.58;;;;;;;;;;5011385;28;20507;-51
2024/02/22 13:16:27;;;;;;;47.65;31.98;;;;;;;;;;5011601;28;20026;-50
2024/02/22 13:18:53;;;;;;;43.05;30.58;;;;;;;;;;5011667;28;20018;-54
2024/02/22 13:21:19;;;;;;;47.20;30.60;;;;;;;;;;5011643;28;20033;-49
2024/02/22 13:23:45;;;;;;;41.55;30.45;;;;;;;;;;5012079;28;20026;-53
2024/02/22 13:26:11;;;;;;;46.97;31.20;;;;;;;;;;5008642;28;20501;-50
2024/02/22 13:28:37;;;;;;;45.42;32.88;;;;;;;;;;5006430;28;20090;-49
2024/02/22 13:31:03;;;;;;;47.50;32.75;;;;;;;;;;4997667;28;20452;-52
2024/02/22 13:33:30;;;;;;;46.28;33.05;;;;;;;;;;5011790;28;20067;-49
2024/02/22 13:35:56;;;;;;;45.25;31.88;;;;;;;;;;5011539;28;20092;-51
2024/02/22 13:38:22;;;;;;;48.67;32.60;;;;;;;;;;5011669;28;20022;-50
2024/02/22 13:40:48;;;;;;;42.55;29.45;;;;;;;;;;5011514;28;20033;-53
2024/02/22 13:43:15;;;;;;;42.92;31.70;;;;;;;;;;5011500;28;20026;-50
2024/02/22 13:45:45;;;;;;;52.05;32.45;;;;;;;;;;5011403;28;20049;-49
2024/02/22 13:48:12;;;;;;;47.80;32.47;;;;;;;;;;5011522;28;20384;-53
2024/02/22 13:50:38;;;;;;;43.38;31.33;;;;;;;;;;5011202;28;20022;-49
2024/02/22 13:53:04;;;;;;;39.75;29.92;;;;;;;;;;5011086;28;20061;-49
2024/02/22 13:55:30;;;;;;;41.75;29.50;;;;;;;;;;5011327;28;20058;-50
2024/02/22 13:57:57;;;;;;;37.10;29.10;;;;;;;;;;5011094;28;20120;-48
2024/02/22 14:00:26;;;;;;;41.42;29.50;;;;;;;;;;5003506;28;20133;-52
2024/02/22 14:02:53;;;;;;;41.38;30.83;;;;;;;;;;5011190;28;20104;-51
2024/02/22 14:05:19;;;;;;;40.83;30.13;;;;;;;;;;5011644;28;20105;-49
2024/02/22 14:07:51;;;;;;;38.10;28.50;;;;;;;;;;5011411;28;20084;-49
2024/02/22 14:10:17;;;;;;;36.72;27.55;;;;;;;;;;5012848;28;20018;-49
2024/02/22 14:12:43;;;;;;;32.17;23.67;;;;;;;;;;5013237;28;20042;-49
2024/02/22 14:15:09;;;;;;;30.15;24.17;;;;;;;;;;5014529;28;20101;-49
2024/02/22 14:17:35;;;;;;;30.70;23.20;;;;;;;;;;5014808;28;20152;-51
2024/02/22 14:20:02;;;;;;;30.83;23.55;;;;;;;;;;5008299;28;20038;-50
2024/02/22 14:22:28;;;;;;;28.30;22.88;;;;;;;;;;5014482;28;20029;-51
2024/02/22 14:24:54;;;;;;;30.67;22.75;;;;;;;;;;5000813;28;20022;-49
2024/02/22 14:27:20;;;;;;;35.08;25.77;;;;;;;;;;5014332;28;20539;-54
2024/02/22 14:29:49;;;;;;;29.98;23.13;;;;;;;;;;5014380;28;20052;-48